X  Zatvori METAR podaci zračne luke        LDPL Pula
Temperatura
10°C Temperatura
8°C Točka rosišta
87% Vlaga



Vjetar
13 KM/S
8 MPS
4 M/S
7 Čvorovi



10°
S
Trenutna situacija

Mostly Cloudy with Light Rain Pretežno oblačno , slaba Kiša
Tlak zraka 1007 (hPa) - 29.73 (inHg)
Vidljivost 6 (milje) - 10 (km)
Zračna luka
Kôd zračne luke LDPL

Lokacija: Pula
Udaljenost: 39 (km)

Metar:
METAR LDPL 231300Z 01007KT 350V050 9999 -RA BKN040 10/08 Q1007 NOSIG

Vrijeme: 23-04-2024 15:00 CEST